Albury
Weather
Information

and Archive.
Albury Local Internet Skycam This service provided and funded by Albury Local Internet

Help keep our weatherstation running:

Lavington Weatherstation live data - Conditions of Use

Last updated on 02-Apr-2015 at 17:30:03
Temperature
  Currently 20.0 Degrees C
  Apparent Temperature ("Wind Chill") is 14.4 degrees C
  Today has ranged from 19.3 at 08:20 to 25.6 at 12:45
  Yesterday ranged from 12.1 at 07:33 to 29.4 at 15:08
Wind
  Now:    8.6kmh, gusting to  10.8kmh from 204 degrees (SSW)
  Hour:  11.5kmh, gusting to  20.2kmh
Rainfall
   0.0mm Midnight to Midnight (ie, yesterday)
   0.0mm Since Midnight (ie, so far today)
   0.0mm 9am yesterday to 9am today
   0.0mm Total this month
Misc items
  Relative humidity is  1%
  Dewpoint is -37.8 deg C
  Estimated Cloudbase is 23700 feet
  Barometric Pressure is 1018.0 mbar
  Solar Insolation: 164 W/m^2
  There should be 529 W/m^2 available to a tracking array
  The sun is 18.0 degrees above the horizon bearing 290.3 degrees.
Top Solar flares in the last 24 hours <--- NEW

Last 24 hours Temperature Graph (click graph for history)
temperature

Last 24 hours Dynamic Wind display (click image for 4-hour image):
Wind Rose

Current Yarrawonga Weather Radar and Infrared Satellite Images from the BOM.

Hourly summaries in the tables below are cumulative and peak values
for the preceding hour, and instantaneous values at the hour.
So far today, 02-Apr-2015
Time   Barom.  Wind + Gust    Direction   RH   Rain    Temp.  Minimum    Maximum
01:00  1017.0  12.0  19.4kmh   19 (NNE)    9%  0.0mm   23.2  23.1@00:52 23.5@00:00
02:00  1017.0  14.4  24.8kmh  351 ( N )    9%  0.0mm   23.3  23.1@01:33 23.4@01:12
03:00  1016.0  16.0  28.4kmh  341 (NNW)   10%  0.0mm   23.2  23.1@02:30 23.5@02:05
04:00  1015.0  16.8  27.7kmh  338 (NNW)   10%  0.0mm   22.5  22.6@03:55 23.2@03:00
05:00  1016.0  16.2  25.6kmh  334 (NNW)   15%  0.0mm   21.1  21.1@04:55 22.5@04:00
06:00  1016.0  14.5  28.4kmh  318 ( NW)   15%  0.0mm   20.5  20.5@05:51 21.2@05:06
07:00  1017.0   8.4  18.7kmh  283 (WNW)   17%  0.0mm   20.3  20.3@06:56 20.6@06:02
08:00  1018.0   9.6  16.9kmh  265 ( W )   21%  0.0mm   19.9  19.9@07:48 20.3@07:00
09:00  1018.0   6.2  19.4kmh  268 ( W )   27%  0.0mm   20.1  19.3@08:20 20.0@08:59
10:00  1019.0   6.3  10.1kmh  318 ( NW)   17%  0.0mm   22.0  20.1@09:00 22.3@09:42
11:00  1019.0  11.4  21.6kmh  321 ( NW)   15%  0.0mm   23.6  21.2@10:23 23.6@10:56
12:00  1019.0  12.2  23.0kmh  243 (WSW)   13%  0.0mm   23.9  22.1@11:23 24.0@11:59
13:00  1019.0  12.7  25.6kmh  225 ( SW)    5%  0.0mm   24.3  23.0@12:07 25.6@12:45
14:00  1018.0  14.0  25.6kmh  263 ( W )    1%  0.0mm   24.6  23.6@13:44 25.5@13:29
15:00  1018.0  13.0  23.8kmh  284 (WNW)    1%  0.0mm   22.5  22.7@14:35 25.1@14:03
16:00  1018.0  12.7  23.8kmh  302 (WNW)    1%  0.0mm   24.0  22.0@15:06 24.3@15:28
17:00  1018.0  13.5  23.8kmh  206 (SSW)    1%  0.0mm   21.6  21.7@16:59 24.5@16:08
17:30  1018.0  11.5  20.2kmh  287 (WNW)    1%  0.0mm   20.0  20.0@17:30 21.6@17:00


Summary for yesterday, 01-Apr-2015
Time   Barom.  Wind + Gust    Direction   RH   Rain    Temp.  Minimum    Maximum
02:00  1024.0   3.5   7.9kmh  141 ( SE)    1%  0.0mm   16.4  16.5@01:59 19.3@01:10
03:00  1024.0   0.0   0.0kmh  140 ( SE)   17%  0.0mm   16.0  15.3@02:26 16.4@02:00
04:00  1024.0   4.4  10.1kmh   39 ( NE)   25%  0.0mm   15.2  14.4@03:44 16.1@03:05
05:00  1023.0   0.8   7.2kmh   40 ( NE)   32%  0.0mm   14.0  14.2@04:55 15.6@04:49
06:00  1023.0   3.5  11.9kmh   33 (NNE)   30%  0.0mm   14.5  13.6@05:18 16.1@05:45
07:00  1023.0   3.2  11.9kmh   47 ( NE)   46%  0.0mm   13.3  12.5@06:33 14.5@06:00
08:00  1024.0   2.1   8.6kmh  150 (SSE)   49%  0.0mm   12.7  12.1@07:33 13.3@07:00
09:00  1024.0   0.4   6.5kmh  268 ( W )   34%  0.0mm   15.2  12.6@08:09 15.8@08:45
10:00  1024.0   4.9  10.8kmh  146 ( SE)   18%  0.0mm   18.2  15.2@09:00 17.9@09:59
11:00  1023.0   6.5  12.6kmh  157 (SSE)   13%  0.0mm   21.4  18.2@10:00 21.5@10:58
12:00  1022.0  11.3  24.5kmh  338 (NNW)    5%  0.0mm   26.2  21.4@11:00 26.5@11:42
13:00  1021.0  12.4  24.5kmh   40 ( NE)    2%  0.0mm   28.0  26.1@12:02 28.3@12:50
14:00  1020.0  13.6  29.2kmh  341 (NNW)    1%  0.0mm   28.4  27.8@13:12 29.1@13:46
15:00  1019.0  12.9  24.5kmh  330 (NNW)    1%  0.0mm   28.7  26.7@14:36 28.8@14:59
16:00  1018.0  13.6  28.4kmh  312 ( NW)    1%  0.0mm   28.4  26.9@15:29 29.4@15:08
17:00  1018.0   9.9  22.3kmh  326 ( NW)    1%  0.0mm   27.2  26.5@16:45 28.4@16:00
18:00  1018.0  13.0  23.8kmh  333 (NNW)    2%  0.0mm   26.2  26.1@17:45 27.2@17:00
19:00  1018.0  10.4  18.0kmh    0 ( N )    4%  0.0mm   24.8  24.9@18:55 26.2@18:00
20:00  1018.0   9.5  16.9kmh   14 (NNE)    5%  0.0mm   24.0  24.0@19:38 24.8@19:00
21:00  1018.0   8.4  14.8kmh  341 (NNW)    7%  0.0mm   23.6  23.6@20:45 24.2@20:21
22:00  1018.0   9.6  14.0kmh  342 (NNW)    8%  0.0mm   23.2  23.2@21:42 23.6@21:00
23:00  1018.0  10.9  19.4kmh   14 (NNE)    8%  0.0mm   23.5  23.1@22:10 23.5@22:40
00:00  1018.0  12.5  20.2kmh  342 (NNW)    8%  0.0mm   23.5  23.5@23:00 23.6@23:11